sensor_id;sensor_type;location;lat;lon;timestamp;P1;durP1;ratioP1;P2;durP2;ratioP2
11125;SDS011;5617;54.046;10.676;2024-03-17T00:00:18;7.27;;;1.53;;
11125;SDS011;5617;54.046;10.676;2024-03-17T00:02:26;8.43;;;1.60;;
11125;SDS011;5617;54.046;10.676;2024-03-17T00:04:33;4.00;;;1.20;;
11125;SDS011;5617;54.046;10.676;2024-03-17T00:06:41;8.17;;;1.53;;
11125;SDS011;5617;54.046;10.676;2024-03-17T00:08:52;7.57;;;1.80;;
11125;SDS011;5617;54.046;10.676;2024-03-17T00:11:01;8.47;;;1.43;;
11125;SDS011;5617;54.046;10.676;2024-03-17T00:13:08;5.47;;;1.17;;
11125;SDS011;5617;54.046;10.676;2024-03-17T00:15:16;7.30;;;1.30;;
11125;SDS011;5617;54.046;10.676;2024-03-17T00:17:23;7.50;;;1.30;;
11125;SDS011;5617;54.046;10.676;2024-03-17T00:19:31;6.57;;;1.43;;
11125;SDS011;5617;54.046;10.676;2024-03-17T00:21:38;4.57;;;1.27;;
11125;SDS011;5617;54.046;10.676;2024-03-17T00:23:47;10.83;;;2.03;;
11125;SDS011;5617;54.046;10.676;2024-03-17T00:25:57;5.50;;;1.20;;
11125;SDS011;5617;54.046;10.676;2024-03-17T00:28:07;9.33;;;1.50;;
11125;SDS011;5617;54.046;10.676;2024-03-17T00:30:16;6.93;;;1.70;;
11125;SDS011;5617;54.046;10.676;2024-03-17T00:32:28;7.57;;;1.57;;
11125;SDS011;5617;54.046;10.676;2024-03-17T00:34:36;8.93;;;1.47;;
11125;SDS011;5617;54.046;10.676;2024-03-17T00:36:44;7.87;;;1.50;;
11125;SDS011;5617;54.046;10.676;2024-03-17T00:38:53;9.50;;;1.70;;
11125;SDS011;5617;54.046;10.676;2024-03-17T00:41:03;7.93;;;1.40;;
11125;SDS011;5617;54.046;10.676;2024-03-17T00:43:12;7.23;;;1.77;;
11125;SDS011;5617;54.046;10.676;2024-03-17T00:45:19;13.10;;;1.50;;
11125;SDS011;5617;54.046;10.676;2024-03-17T00:47:27;7.60;;;1.67;;
11125;SDS011;5617;54.046;10.676;2024-03-17T00:49:35;8.37;;;1.63;;
11125;SDS011;5617;54.046;10.676;2024-03-17T00:51:44;6.93;;;1.50;;
11125;SDS011;5617;54.046;10.676;2024-03-17T00:53:54;4.83;;;1.23;;
11125;SDS011;5617;54.046;10.676;2024-03-17T00:56:06;10.27;;;1.97;;
11125;SDS011;5617;54.046;10.676;2024-03-17T00:58:13;6.90;;;1.27;;
11125;SDS011;5617;54.046;10.676;2024-03-17T01:00:24;7.80;;;1.73;;
11125;SDS011;5617;54.046;10.676;2024-03-17T01:02:34;8.93;;;1.40;;
11125;SDS011;5617;54.046;10.676;2024-03-17T01:04:43;4.67;;;1.30;;
11125;SDS011;5617;54.046;10.676;2024-03-17T01:06:50;5.07;;;1.30;;
11125;SDS011;5617;54.046;10.676;2024-03-17T01:08:58;7.27;;;1.70;;
11125;SDS011;5617;54.046;10.676;2024-03-17T01:11:07;4.77;;;1.40;;
11125;SDS011;5617;54.046;10.676;2024-03-17T01:13:15;4.93;;;1.40;;
11125;SDS011;5617;54.046;10.676;2024-03-17T01:15:23;6.83;;;1.53;;
11125;SDS011;5617;54.046;10.676;2024-03-17T01:17:32;7.67;;;1.83;;
11125;SDS011;5617;54.046;10.676;2024-03-17T01:19:40;4.60;;;1.63;;
11125;SDS011;5617;54.046;10.676;2024-03-17T01:21:50;10.40;;;1.70;;
11125;SDS011;5617;54.046;10.676;2024-03-17T01:23:57;9.20;;;1.47;;
11125;SDS011;5617;54.046;10.676;2024-03-17T01:26:06;7.70;;;1.80;;
11125;SDS011;5617;54.046;10.676;2024-03-17T01:28:13;8.90;;;1.83;;
11125;SDS011;5617;54.046;10.676;2024-03-17T01:30:21;7.30;;;1.57;;
11125;SDS011;5617;54.046;10.676;2024-03-17T01:32:32;7.60;;;1.23;;
11125;SDS011;5617;54.046;10.676;2024-03-17T01:34:41;8.40;;;1.50;;
11125;SDS011;5617;54.046;10.676;2024-03-17T01:36:48;7.00;;;1.60;;
11125;SDS011;5617;54.046;10.676;2024-03-17T01:38:56;5.37;;;1.37;;
11125;SDS011;5617;54.046;10.676;2024-03-17T01:41:03;6.53;;;1.70;;
11125;SDS011;5617;54.046;10.676;2024-03-17T01:43:12;8.87;;;2.20;;
11125;SDS011;5617;54.046;10.676;2024-03-17T01:45:24;7.93;;;1.73;;
11125;SDS011;5617;54.046;10.676;2024-03-17T01:47:34;11.00;;;1.83;;
11125;SDS011;5617;54.046;10.676;2024-03-17T01:49:42;6.53;;;1.37;;
11125;SDS011;5617;54.046;10.676;2024-03-17T01:51:50;7.30;;;1.27;;
11125;SDS011;5617;54.046;10.676;2024-03-17T01:53:59;8.27;;;1.57;;
11125;SDS011;5617;54.046;10.676;2024-03-17T01:56:07;8.43;;;2.07;;
11125;SDS011;5617;54.046;10.676;2024-03-17T01:58:17;10.53;;;1.70;;
11125;SDS011;5617;54.046;10.676;2024-03-17T02:00:27;6.80;;;1.60;;
11125;SDS011;5617;54.046;10.676;2024-03-17T02:02:36;7.47;;;1.40;;
11125;SDS011;5617;54.046;10.676;2024-03-17T02:04:45;8.93;;;1.60;;
11125;SDS011;5617;54.046;10.676;2024-03-17T02:06:52;8.27;;;1.43;;
11125;SDS011;5617;54.046;10.676;2024-03-17T02:09:00;5.93;;;1.63;;
11125;SDS011;5617;54.046;10.676;2024-03-17T02:11:07;7.10;;;1.27;;
11125;SDS011;5617;54.046;10.676;2024-03-17T02:13:34;8.30;;;1.30;;
11125;SDS011;5617;54.046;10.676;2024-03-17T02:15:41;8.27;;;1.63;;
11125;SDS011;5617;54.046;10.676;2024-03-17T02:17:49;4.87;;;1.40;;
11125;SDS011;5617;54.046;10.676;2024-03-17T02:19:56;9.40;;;2.00;;
11125;SDS011;5617;54.046;10.676;2024-03-17T02:22:11;4.17;;;1.37;;
11125;SDS011;5617;54.046;10.676;2024-03-17T02:24:21;6.57;;;1.57;;
11125;SDS011;5617;54.046;10.676;2024-03-17T02:26:29;7.13;;;1.60;;
11125;SDS011;5617;54.046;10.676;2024-03-17T02:28:39;9.43;;;1.60;;
11125;SDS011;5617;54.046;10.676;2024-03-17T02:30:48;6.33;;;1.20;;
11125;SDS011;5617;54.046;10.676;2024-03-17T02:32:55;6.20;;;1.47;;
11125;SDS011;5617;54.046;10.676;2024-03-17T02:35:04;9.13;;;1.57;;
11125;SDS011;5617;54.046;10.676;2024-03-17T02:37:13;6.73;;;1.50;;
11125;SDS011;5617;54.046;10.676;2024-03-17T02:39:21;6.97;;;1.37;;
11125;SDS011;5617;54.046;10.676;2024-03-17T02:41:41;7.57;;;1.47;;
11125;SDS011;5617;54.046;10.676;2024-03-17T02:43:51;9.20;;;1.53;;
11125;SDS011;5617;54.046;10.676;2024-03-17T02:45:58;5.23;;;1.47;;
11125;SDS011;5617;54.046;10.676;2024-03-17T02:48:06;9.97;;;1.60;;
11125;SDS011;5617;54.046;10.676;2024-03-17T02:50:14;5.27;;;1.33;;
11125;SDS011;5617;54.046;10.676;2024-03-17T02:52:25;4.50;;;1.30;;
11125;SDS011;5617;54.046;10.676;2024-03-17T02:54:32;5.80;;;1.30;;
11125;SDS011;5617;54.046;10.676;2024-03-17T02:56:49;5.50;;;1.57;;
11125;SDS011;5617;54.046;10.676;2024-03-17T02:58:57;9.03;;;1.90;;
11125;SDS011;5617;54.046;10.676;2024-03-17T03:01:06;8.83;;;1.63;;
11125;SDS011;5617;54.046;10.676;2024-03-17T03:03:14;6.60;;;1.60;;
11125;SDS011;5617;54.046;10.676;2024-03-17T03:05:22;6.83;;;1.80;;
11125;SDS011;5617;54.046;10.676;2024-03-17T03:07:31;5.83;;;1.53;;
11125;SDS011;5617;54.046;10.676;2024-03-17T03:09:39;4.23;;;1.27;;
11125;SDS011;5617;54.046;10.676;2024-03-17T03:11:47;7.00;;;0.97;;
11125;SDS011;5617;54.046;10.676;2024-03-17T03:13:55;6.67;;;1.20;;
11125;SDS011;5617;54.046;10.676;2024-03-17T03:16:03;4.07;;;0.80;;
11125;SDS011;5617;54.046;10.676;2024-03-17T03:18:12;7.97;;;1.53;;
11125;SDS011;5617;54.046;10.676;2024-03-17T03:20:20;9.03;;;1.80;;
11125;SDS011;5617;54.046;10.676;2024-03-17T03:22:29;11.40;;;1.93;;
11125;SDS011;5617;54.046;10.676;2024-03-17T03:24:38;5.57;;;1.20;;
11125;SDS011;5617;54.046;10.676;2024-03-17T03:26:46;8.43;;;1.83;;
11125;SDS011;5617;54.046;10.676;2024-03-17T03:28:55;9.30;;;1.33;;
11125;SDS011;5617;54.046;10.676;2024-03-17T03:31:03;7.43;;;1.50;;
11125;SDS011;5617;54.046;10.676;2024-03-17T03:33:11;6.27;;;1.53;;
11125;SDS011;5617;54.046;10.676;2024-03-17T03:35:19;8.80;;;1.93;;
11125;SDS011;5617;54.046;10.676;2024-03-17T03:37:30;8.67;;;1.40;;
11125;SDS011;5617;54.046;10.676;2024-03-17T03:39:42;7.87;;;1.80;;
11125;SDS011;5617;54.046;10.676;2024-03-17T03:41:50;7.37;;;1.70;;
11125;SDS011;5617;54.046;10.676;2024-03-17T03:43:58;8.60;;;1.60;;
11125;SDS011;5617;54.046;10.676;2024-03-17T03:46:06;8.93;;;1.60;;
11125;SDS011;5617;54.046;10.676;2024-03-17T03:48:14;5.90;;;1.20;;
11125;SDS011;5617;54.046;10.676;2024-03-17T03:50:22;9.53;;;1.90;;
11125;SDS011;5617;54.046;10.676;2024-03-17T03:52:30;8.53;;;1.30;;
11125;SDS011;5617;54.046;10.676;2024-03-17T03:54:38;11.80;;;1.30;;
11125;SDS011;5617;54.046;10.676;2024-03-17T03:56:48;6.70;;;1.60;;
11125;SDS011;5617;54.046;10.676;2024-03-17T03:58:55;6.43;;;1.50;;
11125;SDS011;5617;54.046;10.676;2024-03-17T04:01:03;6.63;;;1.50;;
11125;SDS011;5617;54.046;10.676;2024-03-17T04:03:12;5.90;;;1.43;;
11125;SDS011;5617;54.046;10.676;2024-03-17T04:05:20;4.57;;;1.50;;
11125;SDS011;5617;54.046;10.676;2024-03-17T04:07:29;4.67;;;1.20;;
11125;SDS011;5617;54.046;10.676;2024-03-17T04:09:37;7.57;;;1.40;;
11125;SDS011;5617;54.046;10.676;2024-03-17T04:11:45;6.13;;;1.47;;
11125;SDS011;5617;54.046;10.676;2024-03-17T04:13:57;4.57;;;1.17;;
11125;SDS011;5617;54.046;10.676;2024-03-17T04:16:10;9.57;;;1.57;;
11125;SDS011;5617;54.046;10.676;2024-03-17T04:18:18;5.73;;;1.73;;
11125;SDS011;5617;54.046;10.676;2024-03-17T04:20:26;11.83;;;1.40;;
11125;SDS011;5617;54.046;10.676;2024-03-17T04:22:38;5.80;;;1.03;;
11125;SDS011;5617;54.046;10.676;2024-03-17T04:24:46;8.70;;;1.97;;
11125;SDS011;5617;54.046;10.676;2024-03-17T04:27:03;5.07;;;1.43;;
11125;SDS011;5617;54.046;10.676;2024-03-17T04:29:12;9.07;;;1.40;;
11125;SDS011;5617;54.046;10.676;2024-03-17T04:31:23;6.97;;;1.40;;
11125;SDS011;5617;54.046;10.676;2024-03-17T04:33:32;5.33;;;1.60;;
11125;SDS011;5617;54.046;10.676;2024-03-17T04:35:45;7.53;;;1.60;;
11125;SDS011;5617;54.046;10.676;2024-03-17T04:37:52;9.10;;;1.70;;
11125;SDS011;5617;54.046;10.676;2024-03-17T04:40:03;8.10;;;1.50;;
11125;SDS011;5617;54.046;10.676;2024-03-17T04:42:19;5.83;;;1.30;;
11125;SDS011;5617;54.046;10.676;2024-03-17T04:44:28;6.07;;;1.63;;
11125;SDS011;5617;54.046;10.676;2024-03-17T04:46:36;5.23;;;1.40;;
11125;SDS011;5617;54.046;10.676;2024-03-17T04:48:45;7.73;;;1.67;;
11125;SDS011;5617;54.046;10.676;2024-03-17T04:50:53;6.47;;;1.37;;
11125;SDS011;5617;54.046;10.676;2024-03-17T04:53:00;10.90;;;1.83;;
11125;SDS011;5617;54.046;10.676;2024-03-17T04:55:09;8.47;;;1.77;;
11125;SDS011;5617;54.046;10.676;2024-03-17T04:57:18;6.27;;;1.50;;
11125;SDS011;5617;54.046;10.676;2024-03-17T04:59:27;7.90;;;1.43;;
11125;SDS011;5617;54.046;10.676;2024-03-17T05:01:37;8.70;;;1.73;;
11125;SDS011;5617;54.046;10.676;2024-03-17T05:03:48;5.30;;;1.33;;
11125;SDS011;5617;54.046;10.676;2024-03-17T05:05:58;9.77;;;1.70;;
11125;SDS011;5617;54.046;10.676;2024-03-17T05:08:08;5.33;;;0.97;;
11125;SDS011;5617;54.046;10.676;2024-03-17T05:10:16;5.20;;;1.70;;
11125;SDS011;5617;54.046;10.676;2024-03-17T05:12:25;7.23;;;1.47;;
11125;SDS011;5617;54.046;10.676;2024-03-17T05:14:33;7.07;;;1.70;;
11125;SDS011;5617;54.046;10.676;2024-03-17T05:16:41;5.07;;;1.20;;
11125;SDS011;5617;54.046;10.676;2024-03-17T05:18:52;6.13;;;1.43;;
11125;SDS011;5617;54.046;10.676;2024-03-17T05:21:00;8.03;;;1.67;;
11125;SDS011;5617;54.046;10.676;2024-03-17T05:23:14;8.73;;;1.53;;
11125;SDS011;5617;54.046;10.676;2024-03-17T05:25:22;6.30;;;1.50;;
11125;SDS011;5617;54.046;10.676;2024-03-17T05:27:32;6.73;;;1.27;;
11125;SDS011;5617;54.046;10.676;2024-03-17T05:29:42;8.90;;;1.93;;
11125;SDS011;5617;54.046;10.676;2024-03-17T05:31:51;7.30;;;1.40;;
11125;SDS011;5617;54.046;10.676;2024-03-17T05:34:03;8.10;;;1.30;;
11125;SDS011;5617;54.046;10.676;2024-03-17T05:36:11;7.57;;;1.37;;
11125;SDS011;5617;54.046;10.676;2024-03-17T05:38:19;6.60;;;1.40;;
11125;SDS011;5617;54.046;10.676;2024-03-17T05:40:27;5.40;;;1.47;;
11125;SDS011;5617;54.046;10.676;2024-03-17T05:42:38;5.90;;;1.40;;
11125;SDS011;5617;54.046;10.676;2024-03-17T05:44:49;5.67;;;1.20;;
11125;SDS011;5617;54.046;10.676;2024-03-17T05:46:57;5.97;;;1.30;;
11125;SDS011;5617;54.046;10.676;2024-03-17T05:49:05;6.27;;;1.60;;
11125;SDS011;5617;54.046;10.676;2024-03-17T05:51:18;5.03;;;1.30;;
11125;SDS011;5617;54.046;10.676;2024-03-17T05:53:26;8.33;;;1.43;;
11125;SDS011;5617;54.046;10.676;2024-03-17T05:55:34;6.57;;;1.90;;
11125;SDS011;5617;54.046;10.676;2024-03-17T05:57:44;6.63;;;1.37;;
11125;SDS011;5617;54.046;10.676;2024-03-17T05:59:57;7.90;;;1.70;;
11125;SDS011;5617;54.046;10.676;2024-03-17T06:02:05;5.87;;;1.47;;
11125;SDS011;5617;54.046;10.676;2024-03-17T06:04:13;8.13;;;1.80;;
11125;SDS011;5617;54.046;10.676;2024-03-17T06:06:20;6.47;;;1.70;;
11125;SDS011;5617;54.046;10.676;2024-03-17T06:08:29;10.07;;;2.07;;
11125;SDS011;5617;54.046;10.676;2024-03-17T06:10:38;8.80;;;1.97;;
11125;SDS011;5617;54.046;10.676;2024-03-17T06:13:01;7.00;;;1.90;;
11125;SDS011;5617;54.046;10.676;2024-03-17T06:15:10;6.33;;;1.67;;
11125;SDS011;5617;54.046;10.676;2024-03-17T06:17:19;6.40;;;1.73;;
11125;SDS011;5617;54.046;10.676;2024-03-17T06:19:30;9.20;;;1.50;;
11125;SDS011;5617;54.046;10.676;2024-03-17T06:21:38;4.83;;;1.50;;
11125;SDS011;5617;54.046;10.676;2024-03-17T06:23:46;5.30;;;1.70;;
11125;SDS011;5617;54.046;10.676;2024-03-17T06:25:54;12.00;;;1.73;;
11125;SDS011;5617;54.046;10.676;2024-03-17T06:28:06;6.47;;;1.57;;
11125;SDS011;5617;54.046;10.676;2024-03-17T06:30:14;7.27;;;1.67;;
11125;SDS011;5617;54.046;10.676;2024-03-17T06:32:23;7.17;;;1.43;;
11125;SDS011;5617;54.046;10.676;2024-03-17T06:34:31;8.47;;;1.43;;
11125;SDS011;5617;54.046;10.676;2024-03-17T06:36:40;5.13;;;1.53;;
11125;SDS011;5617;54.046;10.676;2024-03-17T06:38:48;9.63;;;1.57;;
11125;SDS011;5617;54.046;10.676;2024-03-17T06:40:58;6.20;;;1.60;;
11125;SDS011;5617;54.046;10.676;2024-03-17T06:43:08;5.97;;;1.33;;
11125;SDS011;5617;54.046;10.676;2024-03-17T06:45:17;5.87;;;1.40;;
11125;SDS011;5617;54.046;10.676;2024-03-17T06:47:26;6.10;;;1.50;;
11125;SDS011;5617;54.046;10.676;2024-03-17T06:49:38;4.97;;;1.40;;
11125;SDS011;5617;54.046;10.676;2024-03-17T06:51:46;10.33;;;1.80;;
11125;SDS011;5617;54.046;10.676;2024-03-17T06:53:54;6.50;;;1.70;;
11125;SDS011;5617;54.046;10.676;2024-03-17T06:56:02;7.93;;;1.20;;
11125;SDS011;5617;54.046;10.676;2024-03-17T06:58:13;7.03;;;1.73;;
11125;SDS011;5617;54.046;10.676;2024-03-17T07:00:20;7.87;;;1.80;;
11125;SDS011;5617;54.046;10.676;2024-03-17T07:02:33;8.90;;;2.10;;
11125;SDS011;5617;54.046;10.676;2024-03-17T07:04:42;7.37;;;1.57;;
11125;SDS011;5617;54.046;10.676;2024-03-17T07:06:50;4.80;;;1.40;;
11125;SDS011;5617;54.046;10.676;2024-03-17T07:09:04;7.20;;;1.50;;
11125;SDS011;5617;54.046;10.676;2024-03-17T07:11:13;6.73;;;1.77;;
11125;SDS011;5617;54.046;10.676;2024-03-17T07:13:33;7.43;;;1.80;;
11125;SDS011;5617;54.046;10.676;2024-03-17T07:15:46;8.17;;;1.87;;
11125;SDS011;5617;54.046;10.676;2024-03-17T07:17:54;6.17;;;1.70;;
11125;SDS011;5617;54.046;10.676;2024-03-17T07:20:04;5.33;;;1.27;;
11125;SDS011;5617;54.046;10.676;2024-03-17T07:22:21;5.10;;;1.47;;
11125;SDS011;5617;54.046;10.676;2024-03-17T07:24:33;7.57;;;1.97;;
11125;SDS011;5617;54.046;10.676;2024-03-17T07:26:41;5.90;;;1.50;;
11125;SDS011;5617;54.046;10.676;2024-03-17T07:28:50;4.40;;;1.17;;
11125;SDS011;5617;54.046;10.676;2024-03-17T07:30:59;4.73;;;1.10;;
11125;SDS011;5617;54.046;10.676;2024-03-17T07:33:08;3.20;;;1.47;;
11125;SDS011;5617;54.046;10.676;2024-03-17T07:35:16;3.17;;;1.07;;
11125;SDS011;5617;54.046;10.676;2024-03-17T07:37:24;3.77;;;1.10;;
11125;SDS011;5617;54.046;10.676;2024-03-17T07:39:35;3.17;;;1.00;;
11125;SDS011;5617;54.046;10.676;2024-03-17T07:41:43;2.80;;;1.17;;
11125;SDS011;5617;54.046;10.676;2024-03-17T07:43:53;3.37;;;0.80;;
11125;SDS011;5617;54.046;10.676;2024-03-17T07:46:00;4.63;;;1.13;;
11125;SDS011;5617;54.046;10.676;2024-03-17T07:48:10;2.63;;;0.80;;
11125;SDS011;5617;54.046;10.676;2024-03-17T07:50:18;2.80;;;0.93;;
11125;SDS011;5617;54.046;10.676;2024-03-17T07:52:26;5.13;;;1.10;;
11125;SDS011;5617;54.046;10.676;2024-03-17T07:54:34;2.10;;;1.00;;
11125;SDS011;5617;54.046;10.676;2024-03-17T07:56:43;1.43;;;0.60;;
11125;SDS011;5617;54.046;10.676;2024-03-17T07:58:53;1.53;;;0.80;;
11125;SDS011;5617;54.046;10.676;2024-03-17T08:01:01;1.97;;;0.60;;
11125;SDS011;5617;54.046;10.676;2024-03-17T08:03:10;2.80;;;0.70;;
11125;SDS011;5617;54.046;10.676;2024-03-17T08:05:17;3.67;;;0.87;;
11125;SDS011;5617;54.046;10.676;2024-03-17T08:07:25;5.17;;;1.00;;
11125;SDS011;5617;54.046;10.676;2024-03-17T08:09:33;2.83;;;0.73;;
11125;SDS011;5617;54.046;10.676;2024-03-17T08:11:41;2.00;;;0.70;;
11125;SDS011;5617;54.046;10.676;2024-03-17T08:13:54;3.10;;;0.57;;
11125;SDS011;5617;54.046;10.676;2024-03-17T08:16:03;2.10;;;0.80;;
11125;SDS011;5617;54.046;10.676;2024-03-17T08:18:12;3.43;;;1.00;;
11125;SDS011;5617;54.046;10.676;2024-03-17T08:20:20;3.43;;;0.70;;
11125;SDS011;5617;54.046;10.676;2024-03-17T08:22:30;1.37;;;0.53;;
11125;SDS011;5617;54.046;10.676;2024-03-17T08:24:38;4.47;;;0.60;;
11125;SDS011;5617;54.046;10.676;2024-03-17T08:26:46;2.50;;;0.77;;
11125;SDS011;5617;54.046;10.676;2024-03-17T08:28:55;2.60;;;0.60;;
11125;SDS011;5617;54.046;10.676;2024-03-17T08:31:04;3.50;;;1.00;;
11125;SDS011;5617;54.046;10.676;2024-03-17T08:33:12;2.40;;;0.83;;
11125;SDS011;5617;54.046;10.676;2024-03-17T08:35:21;3.57;;;0.97;;
11125;SDS011;5617;54.046;10.676;2024-03-17T08:37:29;2.97;;;0.80;;
11125;SDS011;5617;54.046;10.676;2024-03-17T08:39:37;5.63;;;1.00;;
11125;SDS011;5617;54.046;10.676;2024-03-17T08:41:45;2.17;;;0.70;;
11125;SDS011;5617;54.046;10.676;2024-03-17T08:43:57;2.33;;;0.60;;
11125;SDS011;5617;54.046;10.676;2024-03-17T08:46:07;4.07;;;0.93;;
11125;SDS011;5617;54.046;10.676;2024-03-17T08:48:15;3.30;;;1.00;;
11125;SDS011;5617;54.046;10.676;2024-03-17T08:50:23;3.43;;;0.90;;
11125;SDS011;5617;54.046;10.676;2024-03-17T08:52:30;1.27;;;0.67;;
11125;SDS011;5617;54.046;10.676;2024-03-17T08:54:38;2.53;;;0.87;;
11125;SDS011;5617;54.046;10.676;2024-03-17T08:56:47;2.17;;;0.77;;
11125;SDS011;5617;54.046;10.676;2024-03-17T08:58:55;7.90;;;1.40;;
11125;SDS011;5617;54.046;10.676;2024-03-17T09:01:07;2.43;;;1.10;;
11125;SDS011;5617;54.046;10.676;2024-03-17T09:03:16;2.20;;;1.30;;
11125;SDS011;5617;54.046;10.676;2024-03-17T09:05:25;3.20;;;1.00;;
11125;SDS011;5617;54.046;10.676;2024-03-17T09:07:37;2.10;;;0.60;;
11125;SDS011;5617;54.046;10.676;2024-03-17T09:09:46;1.00;;;0.70;;
11125;SDS011;5617;54.046;10.676;2024-03-17T09:11:56;4.27;;;0.80;;
11125;SDS011;5617;54.046;10.676;2024-03-17T09:14:05;1.47;;;0.70;;
11125;SDS011;5617;54.046;10.676;2024-03-17T09:16:17;3.13;;;0.87;;
11125;SDS011;5617;54.046;10.676;2024-03-17T09:18:26;1.33;;;0.70;;
11125;SDS011;5617;54.046;10.676;2024-03-17T09:20:34;1.67;;;0.63;;
11125;SDS011;5617;54.046;10.676;2024-03-17T09:22:43;1.63;;;0.73;;
11125;SDS011;5617;54.046;10.676;2024-03-17T09:24:51;2.33;;;0.80;;
11125;SDS011;5617;54.046;10.676;2024-03-17T09:26:59;2.97;;;1.10;;
11125;SDS011;5617;54.046;10.676;2024-03-17T09:29:10;2.07;;;0.90;;
11125;SDS011;5617;54.046;10.676;2024-03-17T09:31:18;2.27;;;1.00;;
11125;SDS011;5617;54.046;10.676;2024-03-17T09:33:26;1.90;;;0.80;;
11125;SDS011;5617;54.046;10.676;2024-03-17T09:35:36;2.20;;;0.90;;
11125;SDS011;5617;54.046;10.676;2024-03-17T09:37:44;2.87;;;1.33;;
11125;SDS011;5617;54.046;10.676;2024-03-17T09:39:53;1.90;;;0.77;;
11125;SDS011;5617;54.046;10.676;2024-03-17T09:42:04;2.80;;;1.20;;
11125;SDS011;5617;54.046;10.676;2024-03-17T09:44:15;3.13;;;1.00;;
11125;SDS011;5617;54.046;10.676;2024-03-17T09:46:23;2.40;;;0.83;;
11125;SDS011;5617;54.046;10.676;2024-03-17T09:48:34;3.93;;;1.07;;
11125;SDS011;5617;54.046;10.676;2024-03-17T09:50:44;3.60;;;1.03;;
11125;SDS011;5617;54.046;10.676;2024-03-17T09:52:57;3.10;;;0.90;;
11125;SDS011;5617;54.046;10.676;2024-03-17T09:55:15;3.60;;;1.50;;
11125;SDS011;5617;54.046;10.676;2024-03-17T09:57:24;2.13;;;1.20;;
11125;SDS011;5617;54.046;10.676;2024-03-17T09:59:35;1.50;;;0.87;;
11125;SDS011;5617;54.046;10.676;2024-03-17T10:01:46;1.93;;;0.90;;
11125;SDS011;5617;54.046;10.676;2024-03-17T10:03:55;3.40;;;1.00;;
11125;SDS011;5617;54.046;10.676;2024-03-17T10:06:05;1.97;;;0.80;;
11125;SDS011;5617;54.046;10.676;2024-03-17T10:08:20;3.00;;;0.90;;
11125;SDS011;5617;54.046;10.676;2024-03-17T10:10:28;2.53;;;1.00;;
11125;SDS011;5617;54.046;10.676;2024-03-17T10:12:36;2.47;;;1.03;;
11125;SDS011;5617;54.046;10.676;2024-03-17T10:14:58;2.00;;;0.80;;
11125;SDS011;5617;54.046;10.676;2024-03-17T10:17:05;0.70;;;0.40;;
11125;SDS011;5617;54.046;10.676;2024-03-17T10:19:15;2.37;;;0.90;;
11125;SDS011;5617;54.046;10.676;2024-03-17T10:21:37;1.87;;;0.90;;
11125;SDS011;5617;54.046;10.676;2024-03-17T10:23:45;3.50;;;1.00;;
11125;SDS011;5617;54.046;10.676;2024-03-17T10:25:53;3.53;;;0.90;;
11125;SDS011;5617;54.046;10.676;2024-03-17T10:28:01;3.43;;;1.30;;
11125;SDS011;5617;54.046;10.676;2024-03-17T10:30:10;3.13;;;1.30;;
11125;SDS011;5617;54.046;10.676;2024-03-17T10:32:25;3.57;;;0.90;;
11125;SDS011;5617;54.046;10.676;2024-03-17T10:34:34;0.97;;;0.70;;
11125;SDS011;5617;54.046;10.676;2024-03-17T10:36:42;4.73;;;1.23;;
11125;SDS011;5617;54.046;10.676;2024-03-17T10:38:51;1.37;;;0.90;;
11125;SDS011;5617;54.046;10.676;2024-03-17T10:40:59;2.57;;;0.80;;
11125;SDS011;5617;54.046;10.676;2024-03-17T10:43:08;5.33;;;1.13;;
11125;SDS011;5617;54.046;10.676;2024-03-17T10:45:19;2.67;;;0.87;;
11125;SDS011;5617;54.046;10.676;2024-03-17T10:47:28;2.23;;;0.90;;
11125;SDS011;5617;54.046;10.676;2024-03-17T10:49:36;2.67;;;0.90;;
11125;SDS011;5617;54.046;10.676;2024-03-17T10:51:45;4.63;;;1.30;;
11125;SDS011;5617;54.046;10.676;2024-03-17T10:53:57;2.30;;;0.97;;
11125;SDS011;5617;54.046;10.676;2024-03-17T10:56:07;1.77;;;0.93;;
11125;SDS011;5617;54.046;10.676;2024-03-17T10:58:20;4.63;;;1.20;;
11125;SDS011;5617;54.046;10.676;2024-03-17T11:00:33;1.77;;;1.00;;
11125;SDS011;5617;54.046;10.676;2024-03-17T11:02:43;1.50;;;0.90;;
11125;SDS011;5617;54.046;10.676;2024-03-17T11:04:53;1.10;;;0.70;;
11125;SDS011;5617;54.046;10.676;2024-03-17T11:07:02;4.03;;;1.20;;
11125;SDS011;5617;54.046;10.676;2024-03-17T11:09:14;3.63;;;1.00;;
11125;SDS011;5617;54.046;10.676;2024-03-17T11:11:34;2.37;;;0.97;;
11125;SDS011;5617;54.046;10.676;2024-03-17T11:13:43;2.70;;;1.00;;
11125;SDS011;5617;54.046;10.676;2024-03-17T11:15:52;4.67;;;1.17;;
11125;SDS011;5617;54.046;10.676;2024-03-17T11:20:37;1.57;;;1.10;;
11125;SDS011;5617;54.046;10.676;2024-03-17T11:22:46;2.00;;;0.97;;
11125;SDS011;5617;54.046;10.676;2024-03-17T11:25:01;2.40;;;1.33;;
11125;SDS011;5617;54.046;10.676;2024-03-17T11:27:46;2.00;;;1.30;;
11125;SDS011;5617;54.046;10.676;2024-03-17T11:29:54;3.80;;;1.00;;
11125;SDS011;5617;54.046;10.676;2024-03-17T11:32:07;3.03;;;1.17;;
11125;SDS011;5617;54.046;10.676;2024-03-17T11:34:35;3.63;;;1.20;;
11125;SDS011;5617;54.046;10.676;2024-03-17T11:36:49;2.40;;;1.10;;
11125;SDS011;5617;54.046;10.676;2024-03-17T11:38:58;1.43;;;0.90;;
11125;SDS011;5617;54.046;10.676;2024-03-17T11:43:47;1.47;;;0.63;;
11125;SDS011;5617;54.046;10.676;2024-03-17T11:45:54;3.40;;;1.10;;
11125;SDS011;5617;54.046;10.676;2024-03-17T11:48:05;1.87;;;1.17;;
11125;SDS011;5617;54.046;10.676;2024-03-17T11:50:18;2.70;;;1.37;;
11125;SDS011;5617;54.046;10.676;2024-03-17T11:52:26;1.77;;;1.10;;
11125;SDS011;5617;54.046;10.676;2024-03-17T11:54:34;2.30;;;1.10;;
11125;SDS011;5617;54.046;10.676;2024-03-17T11:56:42;2.87;;;1.23;;
11125;SDS011;5617;54.046;10.676;2024-03-17T11:59:02;1.10;;;1.00;;
11125;SDS011;5617;54.046;10.676;2024-03-17T12:01:10;2.07;;;1.10;;
11125;SDS011;5617;54.046;10.676;2024-03-17T12:03:19;2.77;;;1.00;;
11125;SDS011;5617;54.046;10.676;2024-03-17T12:05:27;2.67;;;1.20;;
11125;SDS011;5617;54.046;10.676;2024-03-17T12:07:38;1.60;;;1.00;;
11125;SDS011;5617;54.046;10.676;2024-03-17T12:09:50;5.93;;;1.13;;
11125;SDS011;5617;54.046;10.676;2024-03-17T12:12:00;4.47;;;1.23;;
11125;SDS011;5617;54.046;10.676;2024-03-17T12:14:12;3.43;;;1.27;;
11125;SDS011;5617;54.046;10.676;2024-03-17T12:16:26;2.57;;;0.97;;
11125;SDS011;5617;54.046;10.676;2024-03-17T12:18:35;1.93;;;1.10;;
11125;SDS011;5617;54.046;10.676;2024-03-17T12:20:47;2.10;;;0.90;;
11125;SDS011;5617;54.046;10.676;2024-03-17T12:22:55;2.30;;;1.10;;
11125;SDS011;5617;54.046;10.676;2024-03-17T12:25:04;4.47;;;1.03;;
11125;SDS011;5617;54.046;10.676;2024-03-17T12:27:27;1.80;;;0.93;;
11125;SDS011;5617;54.046;10.676;2024-03-17T12:29:36;2.07;;;0.90;;
11125;SDS011;5617;54.046;10.676;2024-03-17T12:31:46;2.60;;;1.20;;
11125;SDS011;5617;54.046;10.676;2024-03-17T12:33:56;3.30;;;1.17;;
11125;SDS011;5617;54.046;10.676;2024-03-17T12:36:04;1.67;;;1.00;;
11125;SDS011;5617;54.046;10.676;2024-03-17T12:38:20;2.00;;;1.03;;
11125;SDS011;5617;54.046;10.676;2024-03-17T12:40:31;3.37;;;1.20;;
11125;SDS011;5617;54.046;10.676;2024-03-17T12:42:46;3.20;;;1.20;;
11125;SDS011;5617;54.046;10.676;2024-03-17T12:44:55;3.63;;;2.23;;
11125;SDS011;5617;54.046;10.676;2024-03-17T12:47:04;1.53;;;0.90;;
11125;SDS011;5617;54.046;10.676;2024-03-17T12:49:13;1.43;;;1.00;;
11125;SDS011;5617;54.046;10.676;2024-03-17T12:51:21;2.97;;;1.03;;
11125;SDS011;5617;54.046;10.676;2024-03-17T12:53:28;2.63;;;0.90;;
11125;SDS011;5617;54.046;10.676;2024-03-17T12:55:36;2.97;;;1.33;;
11125;SDS011;5617;54.046;10.676;2024-03-17T12:58:05;1.93;;;0.90;;
11125;SDS011;5617;54.046;10.676;2024-03-17T13:00:32;2.43;;;1.07;;
11125;SDS011;5617;54.046;10.676;2024-03-17T13:02:41;1.27;;;0.90;;
11125;SDS011;5617;54.046;10.676;2024-03-17T13:07:17;3.20;;;1.30;;
11125;SDS011;5617;54.046;10.676;2024-03-17T13:09:29;1.33;;;1.00;;